sensor_id;sensor_type;location;lat;lon;timestamp;pressure;altitude;pressure_sealevel;temperature;humidity
7050;BME280;22263;52.260;10.548;2023-02-04T00:04:16;79111.84;;;-145.39;100.00
7050;BME280;22263;52.260;10.548;2023-02-04T00:07:56;79111.84;;;-145.39;100.00
7050;BME280;22263;52.260;10.548;2023-02-04T00:15:31;79111.84;;;-145.39;100.00
7050;BME280;22263;52.260;10.548;2023-02-04T00:19:15;79111.84;;;-145.39;100.00
7050;BME280;22263;52.260;10.548;2023-02-04T00:26:42;79111.84;;;-145.39;100.00
7050;BME280;22263;52.260;10.548;2023-02-04T00:50:12;79111.84;;;-145.39;100.00
7050;BME280;22263;52.260;10.548;2023-02-04T00:58:03;79111.84;;;-145.39;100.00
7050;BME280;22263;52.260;10.548;2023-02-04T01:00:44;79111.84;;;-145.39;100.00
7050;BME280;22263;52.260;10.548;2023-02-04T01:21:52;101792.56;;;4.87;100.00
7050;BME280;22263;52.260;10.548;2023-02-04T01:25:34;101786.31;;;4.59;100.00
7050;BME280;22263;52.260;10.548;2023-02-04T01:29:13;101827.69;;;4.71;100.00
7050;BME280;22263;52.260;10.548;2023-02-04T01:33:20;101824.97;;;4.71;100.00
7050;BME280;22263;52.260;10.548;2023-02-04T01:48:15;101887.47;;;4.69;100.00
7050;BME280;22263;52.260;10.548;2023-02-04T02:07:30;101900.22;;;4.33;100.00
7050;BME280;22263;52.260;10.548;2023-02-04T02:11:03;101913.31;;;4.36;100.00
7050;BME280;22263;52.260;10.548;2023-02-04T02:14:01;101898.69;;;4.27;100.00
7050;BME280;22263;52.260;10.548;2023-02-04T02:16:34;101917.97;;;4.22;100.00
7050;BME280;22263;52.260;10.548;2023-02-04T02:19:06;101943.38;;;4.22;100.00
7050;BME280;22263;52.260;10.548;2023-02-04T02:21:47;101950.41;;;4.28;100.00
7050;BME280;22263;52.260;10.548;2023-02-04T02:24:29;101950.50;;;4.23;100.00
7050;BME280;22263;52.260;10.548;2023-02-04T02:27:02;101945.44;;;4.17;100.00
7050;BME280;22263;52.260;10.548;2023-02-04T02:29:42;101945.44;;;4.17;100.00
7050;BME280;22263;52.260;10.548;2023-02-04T02:32:19;101938.28;;;4.02;100.00
7050;BME280;22263;52.260;10.548;2023-02-04T02:34:58;101944.84;;;4.01;100.00
7050;BME280;22263;52.260;10.548;2023-02-04T02:37:31;101960.81;;;3.94;100.00
7050;BME280;22263;52.260;10.548;2023-02-04T02:40:20;101959.31;;;3.88;100.00
7050;BME280;22263;52.260;10.548;2023-02-04T02:42:55;101969.28;;;3.98;100.00
7050;BME280;22263;52.260;10.548;2023-02-04T02:45:39;101975.94;;;3.91;100.00
7050;BME280;22263;52.260;10.548;2023-02-04T02:48:15;101979.03;;;3.85;100.00
7050;BME280;22263;52.260;10.548;2023-02-04T02:50:54;101979.94;;;3.80;100.00
7050;BME280;22263;52.260;10.548;2023-02-04T02:53:30;101993.16;;;3.92;100.00
7050;BME280;22263;52.260;10.548;2023-02-04T02:56:03;101976.16;;;3.76;100.00
7050;BME280;22263;52.260;10.548;2023-02-04T02:58:37;101992.50;;;3.81;100.00
7050;BME280;22263;52.260;10.548;2023-02-04T03:01:10;101999.69;;;3.77;100.00
7050;BME280;22263;52.260;10.548;2023-02-04T03:03:47;102019.03;;;3.81;100.00
7050;BME280;22263;52.260;10.548;2023-02-04T03:06:23;102018.09;;;3.90;100.00
7050;BME280;22263;52.260;10.548;2023-02-04T03:09:00;102012.69;;;3.85;100.00
7050;BME280;22263;52.260;10.548;2023-02-04T03:11:36;102033.59;;;3.76;100.00
7050;BME280;22263;52.260;10.548;2023-02-04T03:14:07;102052.22;;;3.74;100.00
7050;BME280;22263;52.260;10.548;2023-02-04T03:16:51;102060.13;;;3.57;100.00
7050;BME280;22263;52.260;10.548;2023-02-04T03:22:17;102064.44;;;3.63;100.00
7050;BME280;22263;52.260;10.548;2023-02-04T03:24:48;102069.38;;;3.61;100.00
7050;BME280;22263;52.260;10.548;2023-02-04T03:27:21;102073.91;;;3.47;100.00
7050;BME280;22263;52.260;10.548;2023-02-04T03:29:52;102079.84;;;3.54;100.00
7050;BME280;22263;52.260;10.548;2023-02-04T03:32:22;102068.63;;;3.32;100.00
7050;BME280;22263;52.260;10.548;2023-02-04T03:34:52;102083.41;;;3.31;100.00
7050;BME280;22263;52.260;10.548;2023-02-04T03:37:22;102088.34;;;3.29;100.00
7050;BME280;22263;52.260;10.548;2023-02-04T03:39:52;102098.34;;;3.38;100.00
7050;BME280;22263;52.260;10.548;2023-02-04T03:42:24;102107.44;;;3.34;100.00
7050;BME280;22263;52.260;10.548;2023-02-04T03:44:54;102118.38;;;3.34;100.00
7050;BME280;22263;52.260;10.548;2023-02-04T03:47:25;102111.53;;;3.31;100.00
7050;BME280;22263;52.260;10.548;2023-02-04T03:49:55;102127.72;;;3.28;100.00
7050;BME280;22263;52.260;10.548;2023-02-04T03:52:25;102141.09;;;3.29;100.00
7050;BME280;22263;52.260;10.548;2023-02-04T03:54:55;102156.38;;;3.35;100.00
7050;BME280;22263;52.260;10.548;2023-02-04T03:57:28;102148.00;;;3.22;100.00
7050;BME280;22263;52.260;10.548;2023-02-04T03:59:58;102140.94;;;3.21;100.00
7050;BME280;22263;52.260;10.548;2023-02-04T04:02:37;102152.41;;;3.18;100.00
7050;BME280;22263;52.260;10.548;2023-02-04T04:05:16;102168.16;;;3.31;100.00
7050;BME280;22263;52.260;10.548;2023-02-04T04:07:49;102168.81;;;3.18;100.00
7050;BME280;22263;52.260;10.548;2023-02-04T04:10:37;102162.16;;;3.00;100.00
7050;BME280;22263;52.260;10.548;2023-02-04T04:13:35;102166.22;;;3.02;100.00
7050;BME280;22263;52.260;10.548;2023-02-04T04:16:24;102191.34;;;3.04;100.00
7050;BME280;22263;52.260;10.548;2023-02-04T04:19:12;102207.72;;;3.10;100.00
7050;BME280;22263;52.260;10.548;2023-02-04T04:21:45;102210.72;;;3.08;100.00
7050;BME280;22263;52.260;10.548;2023-02-04T04:24:21;102225.78;;;3.05;100.00
7050;BME280;22263;52.260;10.548;2023-02-04T04:26:56;102239.13;;;3.07;100.00
7050;BME280;22263;52.260;10.548;2023-02-04T04:30:10;102244.44;;;2.93;100.00
7050;BME280;22263;52.260;10.548;2023-02-04T04:32:46;102247.16;;;2.93;100.00
7050;BME280;22263;52.260;10.548;2023-02-04T04:35:40;102244.25;;;2.80;100.00
7050;BME280;22263;52.260;10.548;2023-02-04T04:38:22;102245.38;;;2.74;100.00
7050;BME280;22263;52.260;10.548;2023-02-04T04:44:10;102249.72;;;2.80;100.00
7050;BME280;22263;52.260;10.548;2023-02-04T04:46:47;102238.63;;;2.66;100.00
7050;BME280;22263;52.260;10.548;2023-02-04T04:49:22;102264.22;;;2.75;100.00
7050;BME280;22263;52.260;10.548;2023-02-04T04:52:06;102262.13;;;2.62;100.00
7050;BME280;22263;52.260;10.548;2023-02-04T04:54:37;102277.38;;;2.73;100.00
7050;BME280;22263;52.260;10.548;2023-02-04T04:57:13;102278.75;;;2.66;100.00
7050;BME280;22263;52.260;10.548;2023-02-04T04:59:48;102289.09;;;2.69;100.00
7050;BME280;22263;52.260;10.548;2023-02-04T05:02:24;102283.94;;;2.67;100.00
7050;BME280;22263;52.260;10.548;2023-02-04T05:04:57;102263.84;;;2.48;100.00
7050;BME280;22263;52.260;10.548;2023-02-04T05:07:29;102297.31;;;2.69;100.00
7050;BME280;22263;52.260;10.548;2023-02-04T05:10:16;102294.31;;;2.70;100.00
7050;BME280;22263;52.260;10.548;2023-02-04T05:12:51;102298.69;;;2.66;100.00
7050;BME280;22263;52.260;10.548;2023-02-04T05:15:24;102302.50;;;2.70;100.00
7050;BME280;22263;52.260;10.548;2023-02-04T05:17:58;102320.44;;;2.86;100.00
7050;BME280;22263;52.260;10.548;2023-02-04T05:20:36;102323.34;;;2.86;100.00
7050;BME280;22263;52.260;10.548;2023-02-04T05:23:11;102320.44;;;2.86;100.00
7050;BME280;22263;52.260;10.548;2023-02-04T05:25:46;102315.28;;;2.80;100.00
7050;BME280;22263;52.260;10.548;2023-02-04T05:28:17;102311.66;;;2.94;100.00
7050;BME280;22263;52.260;10.548;2023-02-04T05:30:55;102324.22;;;2.95;100.00
7050;BME280;22263;52.260;10.548;2023-02-04T05:33:30;102302.88;;;2.97;100.00
7050;BME280;22263;52.260;10.548;2023-02-04T05:36:13;102326.28;;;3.14;100.00
7050;BME280;22263;52.260;10.548;2023-02-04T05:38:47;102305.03;;;3.05;100.00
7050;BME280;22263;52.260;10.548;2023-02-04T05:41:34;102299.03;;;3.03;100.00
7050;BME280;22263;52.260;10.548;2023-02-04T05:44:11;102329.78;;;3.24;100.00
7050;BME280;22263;52.260;10.548;2023-02-04T05:46:59;102319.69;;;3.20;100.00
7050;BME280;22263;52.260;10.548;2023-02-04T05:49:37;102352.94;;;3.32;100.00
7050;BME280;22263;52.260;10.548;2023-02-04T05:52:31;102355.63;;;3.42;100.00
7050;BME280;22263;52.260;10.548;2023-02-04T05:55:07;102352.41;;;3.35;100.00
7050;BME280;22263;52.260;10.548;2023-02-04T05:57:47;102362.78;;;3.33;100.00
7050;BME280;22263;52.260;10.548;2023-02-04T06:00:21;102370.72;;;3.34;100.00
7050;BME280;22263;52.260;10.548;2023-02-04T06:02:57;102362.47;;;3.39;100.00
7050;BME280;22263;52.260;10.548;2023-02-04T06:05:37;102379.72;;;3.40;100.00
7050;BME280;22263;52.260;10.548;2023-02-04T06:08:14;102381.59;;;3.44;100.00
7050;BME280;22263;52.260;10.548;2023-02-04T06:10:49;102398.53;;;3.41;100.00
7050;BME280;22263;52.260;10.548;2023-02-04T06:13:19;102404.53;;;3.48;100.00
7050;BME280;22263;52.260;10.548;2023-02-04T06:15:53;102401.59;;;3.40;100.00
7050;BME280;22263;52.260;10.548;2023-02-04T06:18:24;102399.41;;;3.37;100.00
7050;BME280;22263;52.260;10.548;2023-02-04T06:21:03;102390.66;;;3.40;100.00
7050;BME280;22263;52.260;10.548;2023-02-04T06:23:40;102396.34;;;3.43;100.00
7050;BME280;22263;52.260;10.548;2023-02-04T06:26:13;102425.53;;;3.58;100.00
7050;BME280;22263;52.260;10.548;2023-02-04T06:28:44;102415.72;;;3.52;100.00
7050;BME280;22263;52.260;10.548;2023-02-04T06:31:17;102414.34;;;3.55;100.00
7050;BME280;22263;52.260;10.548;2023-02-04T06:33:50;102416.50;;;3.58;100.00
7050;BME280;22263;52.260;10.548;2023-02-04T06:36:39;79111.84;;;-145.39;100.00
7050;BME280;22263;52.260;10.548;2023-02-04T06:39:11;102427.66;;;3.66;100.00
7050;BME280;22263;52.260;10.548;2023-02-04T06:41:42;102415.47;;;3.48;100.00
7050;BME280;22263;52.260;10.548;2023-02-04T06:44:19;102401.03;;;3.38;100.00
7050;BME280;22263;52.260;10.548;2023-02-04T06:46:55;102398.88;;;3.35;100.00
7050;BME280;22263;52.260;10.548;2023-02-04T06:49:30;102424.38;;;3.20;100.00
7050;BME280;22263;52.260;10.548;2023-02-04T06:52:04;102421.91;;;3.24;100.00
7050;BME280;22263;52.260;10.548;2023-02-04T06:54:39;102412.09;;;3.18;100.00
7050;BME280;22263;52.260;10.548;2023-02-04T06:57:11;102429.31;;;3.18;100.00
7050;BME280;22263;52.260;10.548;2023-02-04T07:00:14;102415.47;;;2.99;100.00
7050;BME280;22263;52.260;10.548;2023-02-04T07:03:53;102431.28;;;3.02;100.00
7050;BME280;22263;52.260;10.548;2023-02-04T07:06:58;102435.16;;;2.91;100.00
7050;BME280;22263;52.260;10.548;2023-02-04T07:09:31;102458.63;;;2.97;100.00
7050;BME280;22263;52.260;10.548;2023-02-04T07:12:01;102450.44;;;2.97;100.00
7050;BME280;22263;52.260;10.548;2023-02-04T07:14:31;102461.91;;;2.99;100.00
7050;BME280;22263;52.260;10.548;2023-02-04T07:17:01;102464.38;;;3.01;100.00
7050;BME280;22263;52.260;10.548;2023-02-04T07:19:31;102474.44;;;3.11;100.00
7050;BME280;22263;52.260;10.548;2023-02-04T07:22:02;102466.78;;;3.07;100.00
7050;BME280;22263;52.260;10.548;2023-02-04T07:24:35;102460.25;;;3.03;100.00
7050;BME280;22263;52.260;10.548;2023-02-04T07:27:05;102489.19;;;3.15;100.00
7050;BME280;22263;52.260;10.548;2023-02-04T07:29:35;102484.56;;;3.05;100.00
7050;BME280;22263;52.260;10.548;2023-02-04T07:32:05;102491.38;;;3.07;100.00
7050;BME280;22263;52.260;10.548;2023-02-04T07:34:37;102493.03;;;3.03;100.00
7050;BME280;22263;52.260;10.548;2023-02-04T07:37:07;102495.25;;;3.01;100.00
7050;BME280;22263;52.260;10.548;2023-02-04T07:39:39;102506.44;;;3.05;100.00
7050;BME280;22263;52.260;10.548;2023-02-04T07:42:47;102519.00;;;3.11;100.00
7050;BME280;22263;52.260;10.548;2023-02-04T07:46:12;102512.16;;;3.03;100.00
7050;BME280;22263;52.260;10.548;2023-02-04T07:49:27;102525.53;;;3.15;100.00
7050;BME280;22263;52.260;10.548;2023-02-04T07:51:57;102536.22;;;3.12;100.00
7050;BME280;22263;52.260;10.548;2023-02-04T07:54:27;102522.81;;;3.15;100.00
7050;BME280;22263;52.260;10.548;2023-02-04T07:57:00;102538.63;;;3.23;100.00
7050;BME280;22263;52.260;10.548;2023-02-04T07:59:30;102518.09;;;3.31;100.00
7050;BME280;22263;52.260;10.548;2023-02-04T08:02:00;102546.13;;;3.62;100.00
7050;BME280;22263;52.260;10.548;2023-02-04T08:04:30;102550.22;;;3.64;100.00
7050;BME280;22263;52.260;10.548;2023-02-04T08:07:00;102562.25;;;3.68;100.00
7050;BME280;22263;52.260;10.548;2023-02-04T08:09:30;102552.81;;;3.89;100.00
7050;BME280;22263;52.260;10.548;2023-02-04T08:12:03;102551.03;;;4.09;100.00
7050;BME280;22263;52.260;10.548;2023-02-04T08:14:33;102548.91;;;4.01;100.00
7050;BME280;22263;52.260;10.548;2023-02-04T08:17:03;102546.97;;;4.06;100.00
7050;BME280;22263;52.260;10.548;2023-02-04T08:19:33;102555.25;;;4.35;100.00
7050;BME280;22263;52.260;10.548;2023-02-04T08:22:03;102549.56;;;4.60;100.00
7050;BME280;22263;52.260;10.548;2023-02-04T08:24:33;102555.84;;;4.90;100.00
7050;BME280;22263;52.260;10.548;2023-02-04T08:27:05;102552.03;;;5.14;100.00
7050;BME280;22263;52.260;10.548;2023-02-04T08:29:35;102553.78;;;5.71;100.00
7050;BME280;22263;52.260;10.548;2023-02-04T08:32:05;102545.44;;;6.19;100.00
7050;BME280;22263;52.260;10.548;2023-02-04T08:34:36;102547.78;;;6.77;100.00
7050;BME280;22263;52.260;10.548;2023-02-04T08:37:05;102526.44;;;7.01;100.00
7050;BME280;22263;52.260;10.548;2023-02-04T08:39:35;102539.06;;;7.57;100.00
7050;BME280;22263;52.260;10.548;2023-02-04T08:42:09;102529.84;;;8.11;100.00
7050;BME280;22263;52.260;10.548;2023-02-04T08:44:38;102523.28;;;8.34;100.00
7050;BME280;22263;52.260;10.548;2023-02-04T08:47:08;102539.91;;;8.73;100.00
7050;BME280;22263;52.260;10.548;2023-02-04T08:49:38;79111.84;;;-145.39;100.00
7050;BME280;22263;52.260;10.548;2023-02-04T08:52:08;102537.97;;;9.05;100.00
7050;BME280;22263;52.260;10.548;2023-02-04T08:54:40;102533.16;;;8.88;100.00
7050;BME280;22263;52.260;10.548;2023-02-04T08:57:17;102545.22;;;9.32;100.00
7050;BME280;22263;52.260;10.548;2023-02-04T08:59:50;102553.63;;;9.27;100.00
7050;BME280;22263;52.260;10.548;2023-02-04T09:02:20;102549.41;;;9.21;100.00
7050;BME280;22263;52.260;10.548;2023-02-04T09:04:50;102541.56;;;9.62;100.00
7050;BME280;22263;52.260;10.548;2023-02-04T09:07:21;102536.88;;;9.88;100.00
7050;BME280;22263;52.260;10.548;2023-02-04T09:09:51;102534.13;;;9.88;100.00
7050;BME280;22263;52.260;10.548;2023-02-04T09:12:24;102543.88;;;10.03;100.00
7050;BME280;22263;52.260;10.548;2023-02-04T09:14:54;102544.75;;;10.38;100.00
7050;BME280;22263;52.260;10.548;2023-02-04T09:17:24;102548.28;;;10.56;100.00
7050;BME280;22263;52.260;10.548;2023-02-04T09:19:54;102555.13;;;10.58;100.00
7050;BME280;22263;52.260;10.548;2023-02-04T09:22:24;102542.41;;;10.66;100.00
7050;BME280;22263;52.260;10.548;2023-02-04T09:24:54;102554.44;;;11.25;100.00
7050;BME280;22263;52.260;10.548;2023-02-04T09:27:27;102564.22;;;11.60;100.00
7050;BME280;22263;52.260;10.548;2023-02-04T09:29:57;102563.66;;;11.75;100.00
7050;BME280;22263;52.260;10.548;2023-02-04T09:32:26;102568.19;;;11.51;100.00
7050;BME280;22263;52.260;10.548;2023-02-04T09:34:57;102564.69;;;11.62;100.00
7050;BME280;22263;52.260;10.548;2023-02-04T09:37:27;102577.69;;;11.41;100.00
7050;BME280;22263;52.260;10.548;2023-02-04T09:39:56;102572.81;;;11.67;100.00
7050;BME280;22263;52.260;10.548;2023-02-04T09:42:29;102578.69;;;11.74;100.00
7050;BME280;22263;52.260;10.548;2023-02-04T09:44:59;102567.69;;;12.07;100.00
7050;BME280;22263;52.260;10.548;2023-02-04T09:47:29;102568.53;;;12.61;100.00
7050;BME280;22263;52.260;10.548;2023-02-04T09:49:59;102561.81;;;12.62;100.00
7050;BME280;22263;52.260;10.548;2023-02-04T09:52:29;102592.97;;;12.47;100.00
7050;BME280;22263;52.260;10.548;2023-02-04T09:54:59;102581.34;;;12.33;100.00
7050;BME280;22263;52.260;10.548;2023-02-04T09:57:32;102586.16;;;12.24;100.00
7050;BME280;22263;52.260;10.548;2023-02-04T10:00:14;102592.22;;;12.59;100.00
7050;BME280;22263;52.260;10.548;2023-02-04T10:02:47;102595.22;;;13.20;100.00
7050;BME280;22263;52.260;10.548;2023-02-04T10:05:24;102594.66;;;13.26;100.00
7050;BME280;22263;52.260;10.548;2023-02-04T10:07:57;102600.94;;;13.60;100.00
7050;BME280;22263;52.260;10.548;2023-02-04T10:10:39;102593.06;;;13.74;100.00
7050;BME280;22263;52.260;10.548;2023-02-04T10:14:07;102595.84;;;13.49;100.00
7050;BME280;22263;52.260;10.548;2023-02-04T10:16:51;102608.44;;;13.35;99.08
7050;BME280;22263;52.260;10.548;2023-02-04T10:19:36;102602.19;;;13.62;100.00
7050;BME280;22263;52.260;10.548;2023-02-04T10:22:22;102609.88;;;14.42;100.00
7050;BME280;22263;52.260;10.548;2023-02-04T10:25:38;102598.00;;;14.57;98.80
7050;BME280;22263;52.260;10.548;2023-02-04T10:28:39;102584.69;;;15.88;94.41
7050;BME280;22263;52.260;10.548;2023-02-04T10:31:50;102601.03;;;16.97;74.40
7050;BME280;22263;52.260;10.548;2023-02-04T10:34:39;102589.16;;;17.72;76.06
7050;BME280;22263;52.260;10.548;2023-02-04T10:37:19;102607.88;;;17.95;74.67
7050;BME280;22263;52.260;10.548;2023-02-04T10:39:57;102621.59;;;17.31;64.50
7050;BME280;22263;52.260;10.548;2023-02-04T10:42:46;102611.16;;;17.51;66.25
7050;BME280;22263;52.260;10.548;2023-02-04T10:45:25;102628.66;;;15.44;58.82
7050;BME280;22263;52.260;10.548;2023-02-04T10:48:03;102635.81;;;13.93;89.47
7050;BME280;22263;52.260;10.548;2023-02-04T10:50:38;102633.66;;;14.79;94.00
7050;BME280;22263;52.260;10.548;2023-02-04T10:53:25;102646.09;;;13.32;94.27
7050;BME280;22263;52.260;10.548;2023-02-04T10:56:15;102637.06;;;14.08;94.48
7050;BME280;22263;52.260;10.548;2023-02-04T10:58:45;102635.16;;;12.20;96.46
7050;BME280;22263;52.260;10.548;2023-02-04T11:01:21;102643.19;;;11.37;100.00
7050;BME280;22263;52.260;10.548;2023-02-04T11:03:54;102636.97;;;10.50;100.00
7050;BME280;22263;52.260;10.548;2023-02-04T11:06:24;102656.84;;;10.61;100.00
7050;BME280;22263;52.260;10.548;2023-02-04T11:08:58;102643.41;;;10.03;100.00
7050;BME280;22263;52.260;10.548;2023-02-04T11:11:30;102645.94;;;10.30;100.00
7050;BME280;22263;52.260;10.548;2023-02-04T11:14:03;102637.66;;;10.39;100.00
7050;BME280;22263;52.260;10.548;2023-02-04T11:16:46;102653.25;;;10.86;100.00
7050;BME280;22263;52.260;10.548;2023-02-04T11:19:30;102643.34;;;10.77;100.00
7050;BME280;22263;52.260;10.548;2023-02-04T11:22:20;102642.84;;;10.66;100.00
7050;BME280;22263;52.260;10.548;2023-02-04T11:24:51;102639.69;;;11.57;100.00
7050;BME280;22263;52.260;10.548;2023-02-04T11:27:24;102648.38;;;11.56;100.00
7050;BME280;22263;52.260;10.548;2023-02-04T11:30:16;102643.13;;;11.08;100.00
7050;BME280;22263;52.260;10.548;2023-02-04T11:32:55;102669.53;;;10.45;100.00
7050;BME280;22263;52.260;10.548;2023-02-04T11:35:33;102656.50;;;9.72;100.00
7050;BME280;22263;52.260;10.548;2023-02-04T11:38:03;102659.91;;;10.25;100.00
7050;BME280;22263;52.260;10.548;2023-02-04T11:40:56;102657.72;;;14.71;73.77
7050;BME280;22263;52.260;10.548;2023-02-04T11:43:32;102649.22;;;16.91;66.29
7050;BME280;22263;52.260;10.548;2023-02-04T11:46:15;102645.00;;;17.88;54.02
7050;BME280;22263;52.260;10.548;2023-02-04T11:48:56;102656.41;;;17.11;44.39
7050;BME280;22263;52.260;10.548;2023-02-04T11:51:33;102642.00;;;18.56;43.92
7050;BME280;22263;52.260;10.548;2023-02-04T11:54:05;102651.91;;;17.71;41.75
7050;BME280;22263;52.260;10.548;2023-02-04T11:56:35;102662.06;;;15.87;47.65
7050;BME280;22263;52.260;10.548;2023-02-04T11:59:10;102672.94;;;14.62;71.47
7050;BME280;22263;52.260;10.548;2023-02-04T12:01:42;102665.47;;;13.77;77.52
7050;BME280;22263;52.260;10.548;2023-02-04T12:04:23;102676.63;;;12.16;66.86
7050;BME280;22263;52.260;10.548;2023-02-04T12:07:02;102662.44;;;12.18;75.02
7050;BME280;22263;52.260;10.548;2023-02-04T12:09:33;102676.13;;;11.38;73.61
7050;BME280;22263;52.260;10.548;2023-02-04T12:12:08;102684.69;;;10.82;86.54
7050;BME280;22263;52.260;10.548;2023-02-04T12:14:41;102661.22;;;10.71;86.33
7050;BME280;22263;52.260;10.548;2023-02-04T12:17:17;102678.47;;;10.33;92.54
7050;BME280;22263;52.260;10.548;2023-02-04T12:19:48;102673.59;;;10.30;92.96
7050;BME280;22263;52.260;10.548;2023-02-04T12:22:22;102678.16;;;10.26;92.65
7050;BME280;22263;52.260;10.548;2023-02-04T12:25:00;102676.88;;;10.67;87.41
7050;BME280;22263;52.260;10.548;2023-02-04T12:27:38;102680.97;;;11.97;100.00
7050;BME280;22263;52.260;10.548;2023-02-04T12:30:11;102679.00;;;13.42;71.82
7050;BME280;22263;52.260;10.548;2023-02-04T12:32:41;102665.81;;;16.65;67.72
7050;BME280;22263;52.260;10.548;2023-02-04T12:35:13;102663.13;;;18.24;43.79
7050;BME280;22263;52.260;10.548;2023-02-04T12:37:45;102671.34;;;19.33;58.28
7050;BME280;22263;52.260;10.548;2023-02-04T12:40:21;102683.59;;;17.33;48.79
7050;BME280;22263;52.260;10.548;2023-02-04T12:42:51;102682.69;;;17.71;46.39
7050;BME280;22263;52.260;10.548;2023-02-04T12:45:21;102686.22;;;17.46;52.26
7050;BME280;22263;52.260;10.548;2023-02-04T12:47:50;102685.28;;;17.38;44.44
7050;BME280;22263;52.260;10.548;2023-02-04T12:50:20;102695.09;;;14.98;45.71
7050;BME280;22263;52.260;10.548;2023-02-04T12:52:56;102689.03;;;15.52;64.58
7050;BME280;22263;52.260;10.548;2023-02-04T12:55:31;102685.47;;;15.67;46.04
7050;BME280;22263;52.260;10.548;2023-02-04T12:58:28;102677.19;;;16.21;60.99
7050;BME280;22263;52.260;10.548;2023-02-04T13:01:16;102673.28;;;16.95;44.80
7050;BME280;22263;52.260;10.548;2023-02-04T13:04:56;102680.47;;;17.16;55.43
7050;BME280;22263;52.260;10.548;2023-02-04T13:11:56;102686.91;;;15.33;45.62
7050;BME280;22263;52.260;10.548;2023-02-04T13:14:34;102689.91;;;14.32;64.59
7050;BME280;22263;52.260;10.548;2023-02-04T13:17:07;102688.63;;;13.69;54.40
7050;BME280;22263;52.260;10.548;2023-02-04T13:19:37;102701.63;;;13.65;50.85
7050;BME280;22263;52.260;10.548;2023-02-04T13:22:07;102693.13;;;14.59;56.01
7050;BME280;22263;52.260;10.548;2023-02-04T13:24:43;102685.19;;;15.56;54.27
7050;BME280;22263;52.260;10.548;2023-02-04T13:27:22;102695.13;;;14.34;52.28
7050;BME280;22263;52.260;10.548;2023-02-04T13:30:08;102698.84;;;13.65;66.81
7050;BME280;22263;52.260;10.548;2023-02-04T13:32:37;102702.28;;;12.96;78.82
7050;BME280;22263;52.260;10.548;2023-02-04T13:35:07;102706.50;;;12.82;55.79
7050;BME280;22263;52.260;10.548;2023-02-04T13:37:37;102706.00;;;13.21;52.04
7050;BME280;22263;52.260;10.548;2023-02-04T13:40:07;102704.41;;;12.99;55.62
7050;BME280;22263;52.260;10.548;2023-02-04T13:42:40;102715.50;;;12.37;71.33
7050;BME280;22263;52.260;10.548;2023-02-04T13:45:09;102711.53;;;12.88;53.04
7050;BME280;22263;52.260;10.548;2023-02-04T13:47:42;102720.72;;;13.01;57.87
7050;BME280;22263;52.260;10.548;2023-02-04T13:50:14;102717.50;;;12.78;51.94
7050;BME280;22263;52.260;10.548;2023-02-04T13:52:43;102705.88;;;12.76;55.33
7050;BME280;22263;52.260;10.548;2023-02-04T13:55:13;102703.59;;;12.99;67.39
7050;BME280;22263;52.260;10.548;2023-02-04T13:57:45;102702.44;;;12.58;51.67
7050;BME280;22263;52.260;10.548;2023-02-04T14:00:15;102705.69;;;13.02;54.59
7050;BME280;22263;52.260;10.548;2023-02-04T14:02:45;102711.44;;;13.63;86.81
7050;BME280;22263;52.260;10.548;2023-02-04T14:05:15;102693.88;;;14.83;100.00
7050;BME280;22263;52.260;10.548;2023-02-04T14:07:44;102699.84;;;15.53;92.58
7050;BME280;22263;52.260;10.548;2023-02-04T14:10:14;102702.38;;;15.58;88.46
7050;BME280;22263;52.260;10.548;2023-02-04T14:12:47;102706.09;;;15.07;54.89
7050;BME280;22263;52.260;10.548;2023-02-04T14:15:16;102699.25;;;15.04;60.86
7050;BME280;22263;52.260;10.548;2023-02-04T14:17:46;102698.91;;;15.06;98.20
7050;BME280;22263;52.260;10.548;2023-02-04T14:20:16;102694.25;;;15.10;85.64
7050;BME280;22263;52.260;10.548;2023-02-04T14:22:46;102703.41;;;15.10;91.92
7050;BME280;22263;52.260;10.548;2023-02-04T14:25:16;102700.31;;;15.00;86.35
7050;BME280;22263;52.260;10.548;2023-02-04T14:28:03;102701.16;;;14.88;86.13
7050;BME280;22263;52.260;10.548;2023-02-04T14:30:33;102712.00;;;13.11;58.77
7050;BME280;22263;52.260;10.548;2023-02-04T14:33:03;102702.53;;;13.69;94.47
7050;BME280;22263;52.260;10.548;2023-02-04T14:35:34;102709.38;;;13.72;88.09
7050;BME280;22263;52.260;10.548;2023-02-04T14:38:04;102704.56;;;13.48;72.74
7050;BME280;22263;52.260;10.548;2023-02-04T14:40:33;102705.53;;;13.52;100.00
7050;BME280;22263;52.260;10.548;2023-02-04T14:43:06;102705.59;;;13.43;98.70
7050;BME280;22263;52.260;10.548;2023-02-04T14:45:36;102715.13;;;12.89;83.51
7050;BME280;22263;52.260;10.548;2023-02-04T14:48:07;102719.38;;;12.65;98.15
7050;BME280;22263;52.260;10.548;2023-02-04T14:50:36;102718.66;;;12.27;100.00
7050;BME280;22263;52.260;10.548;2023-02-04T14:53:06;102718.66;;;12.27;100.00
7050;BME280;22263;52.260;10.548;2023-02-04T14:55:36;102727.63;;;11.31;96.27
7050;BME280;22263;52.260;10.548;2023-02-04T14:58:08;102738.25;;;10.77;95.80
7050;BME280;22263;52.260;10.548;2023-02-04T15:00:38;102738.84;;;10.40;92.36
7050;BME280;22263;52.260;10.548;2023-02-04T15:03:07;102739.03;;;10.52;100.00
7050;BME280;22263;52.260;10.548;2023-02-04T15:05:37;102744.25;;;10.54;100.00
7050;BME280;22263;52.260;10.548;2023-02-04T15:08:07;102737.88;;;10.36;100.00
7050;BME280;22263;52.260;10.548;2023-02-04T15:10:36;102734.59;;;10.25;100.00
7050;BME280;22263;52.260;10.548;2023-02-04T15:13:09;102740.81;;;10.08;100.00
7050;BME280;22263;52.260;10.548;2023-02-04T15:15:39;102727.22;;;9.81;100.00
7050;BME280;22263;52.260;10.548;2023-02-04T15:18:09;102723.13;;;9.79;100.00